PHCSU EGHJ-EGNM
Flight info
| Callsign | PHCSU |
|---|---|
| Flight time | 0h 55m |
| Altitude | 22000 |
| Route | EGHJ DCT CPT DCT EMKUK DCT ADMEX S1 EGNM |
| Aircraft | SF50/L-SR/S |
Departure
| Time | 2026-05-01 08:05 |
|---|---|
| Airport | Bembridge Airport (EGHJ) |
Arrival
| Time | 2026-05-01 09:00 |
|---|---|
| Airport | Leeds Bradford Airport (EGNM) |
| Time | Latitude | Longitude | Altitude | Speed | Heading |
|---|---|---|---|---|---|
| 2026-05-01 07:58 | 50.67840 | -1.10483 | 19 ft | 0 kts | 163° |
| 2026-05-01 08:01 | 50.67809 | -1.10543 | 24 ft | 13 kts | 269° |
| 2026-05-01 08:02 | 50.67805 | -1.10760 | 32 ft | 7 kts | 266° |
| 2026-05-01 08:02 | 50.67793 | -1.10799 | 33 ft | 4 kts | 210° |
| 2026-05-01 08:03 | 50.67792 | -1.10801 | 33 ft | 0 kts | 206° |
| 2026-05-01 08:03 | 50.67826 | -1.11025 | 37 ft | 22 kts | 300° |
| 2026-05-01 08:04 | 50.67965 | -1.11423 | 46 ft | 4 kts | 144° |
| 2026-05-01 08:04 | 50.67636 | -1.10475 | 69 ft | 107 kts | 119° |
| 2026-05-01 08:05 | 50.67087 | -1.08054 | 870 ft | 133 kts | 91° |
| 2026-05-01 08:05 | 50.67333 | -1.06579 | 1280 ft | 146 kts | 58° |
| 2026-05-01 08:05 | 50.68097 | -1.05733 | 1967 ft | 137 kts | 9° |
| 2026-05-01 08:06 | 50.70173 | -1.06250 | 2700 ft | 164 kts | 348° |
| 2026-05-01 08:06 | 50.72213 | -1.06951 | 4186 ft | 131 kts | 348° |
| 2026-05-01 08:07 | 50.74094 | -1.07877 | 4942 ft | 142 kts | 310° |
| 2026-05-01 08:07 | 50.75491 | -1.09778 | 5767 ft | 133 kts | 359° |
| 2026-05-01 08:08 | 50.76401 | -1.09802 | 6187 ft | 129 kts | 353° |
| 2026-05-01 08:08 | 50.78126 | -1.10115 | 7012 ft | 121 kts | 353° |
| 2026-05-01 08:09 | 50.79738 | -1.10381 | 7762 ft | 119 kts | 354° |
| 2026-05-01 08:09 | 50.80641 | -1.10528 | 7863 ft | 142 kts | 354° |
| 2026-05-01 08:09 | 50.81698 | -1.10704 | 7915 ft | 163 kts | 354° |
| 2026-05-01 08:10 | 50.84143 | -1.11108 | 7974 ft | 186 kts | 354° |
| 2026-05-01 08:10 | 50.86712 | -1.11533 | 8236 ft | 186 kts | 354° |
| 2026-05-01 08:11 | 50.89280 | -1.11957 | 8570 ft | 182 kts | 354° |
| 2026-05-01 08:11 | 50.91655 | -1.12346 | 9397 ft | 161 kts | 354° |
| 2026-05-01 08:12 | 50.93788 | -1.12699 | 10213 ft | 150 kts | 354° |
| 2026-05-01 08:12 | 50.94818 | -1.12865 | 10631 ft | 144 kts | 354° |
| 2026-05-01 08:12 | 50.96733 | -1.13183 | 11445 ft | 133 kts | 354° |
| 2026-05-01 08:13 | 50.97632 | -1.13335 | 11849 ft | 127 kts | 354° |
| 2026-05-01 08:13 | 50.98486 | -1.13474 | 12248 ft | 119 kts | 354° |
| 2026-05-01 08:13 | 50.99989 | -1.13727 | 12993 ft | 96 kts | 354° |
| 2026-05-01 08:14 | 51.00642 | -1.13834 | 13196 ft | 93 kts | 355° |
| 2026-05-01 08:14 | 51.01286 | -1.13941 | 13346 ft | 93 kts | 353° |
| 2026-05-01 08:14 | 51.01936 | -1.14038 | 13490 ft | 94 kts | 354° |
| 2026-05-01 08:14 | 51.02594 | -1.14157 | 13598 ft | 101 kts | 354° |
| 2026-05-01 08:15 | 51.03344 | -1.14272 | 13719 ft | 113 kts | 353° |
| 2026-05-01 08:15 | 51.05176 | -1.14582 | 14189 ft | 146 kts | 354° |
| 2026-05-01 08:15 | 51.06235 | -1.14759 | 14477 ft | 160 kts | 354° |
| 2026-05-01 08:16 | 51.07393 | -1.14957 | 14759 ft | 174 kts | 354° |
| 2026-05-01 08:16 | 51.08646 | -1.15165 | 15034 ft | 187 kts | 354° |
| 2026-05-01 08:16 | 51.09987 | -1.15391 | 15307 ft | 202 kts | 354° |
| 2026-05-01 08:16 | 51.11433 | -1.15632 | 15571 ft | 215 kts | 354° |
| 2026-05-01 08:17 | 51.12959 | -1.15884 | 15835 ft | 225 kts | 354° |
| 2026-05-01 08:17 | 51.14554 | -1.16152 | 16095 ft | 234 kts | 354° |
| 2026-05-01 08:17 | 51.16196 | -1.16423 | 16352 ft | 241 kts | 354° |
| 2026-05-01 08:17 | 51.17882 | -1.16705 | 16607 ft | 245 kts | 354° |
| 2026-05-01 08:18 | 51.19567 | -1.16987 | 16857 ft | 248 kts | 354° |
| 2026-05-01 08:18 | 51.23104 | -1.17581 | 17002 ft | 265 kts | 354° |
| 2026-05-01 08:19 | 51.26870 | -1.18214 | 17010 ft | 279 kts | 354° |
| 2026-05-01 08:19 | 51.28818 | -1.18540 | 17009 ft | 286 kts | 354° |
| 2026-05-01 08:19 | 51.30825 | -1.18875 | 17010 ft | 293 kts | 354° |
| 2026-05-01 08:19 | 51.32870 | -1.19221 | 17008 ft | 299 kts | 354° |
| 2026-05-01 08:20 | 51.34950 | -1.19569 | 17009 ft | 303 kts | 354° |
| 2026-05-01 08:20 | 51.37067 | -1.19926 | 17009 ft | 306 kts | 354° |
| 2026-05-01 08:20 | 51.39196 | -1.20284 | 17010 ft | 309 kts | 354° |
| 2026-05-01 08:20 | 51.41344 | -1.20649 | 17009 ft | 311 kts | 354° |
| 2026-05-01 08:21 | 51.43501 | -1.21014 | 17010 ft | 312 kts | 354° |
| 2026-05-01 08:21 | 51.45665 | -1.21378 | 17009 ft | 313 kts | 354° |
| 2026-05-01 08:21 | 51.47836 | -1.21746 | 17009 ft | 314 kts | 354° |
| 2026-05-01 08:21 | 51.50009 | -1.22187 | 17008 ft | 314 kts | 350° |
| 2026-05-01 08:22 | 51.52159 | -1.22792 | 17008 ft | 315 kts | 350° |
| 2026-05-01 08:22 | 51.54316 | -1.23390 | 17009 ft | 315 kts | 350° |
| 2026-05-01 08:22 | 51.56483 | -1.23979 | 17009 ft | 316 kts | 350° |
| 2026-05-01 08:22 | 51.58632 | -1.24570 | 17010 ft | 316 kts | 350° |
| 2026-05-01 08:23 | 51.60799 | -1.25167 | 17096 ft | 313 kts | 350° |
| 2026-05-01 08:23 | 51.62862 | -1.25738 | 17866 ft | 287 kts | 350° |
| 2026-05-01 08:23 | 51.64729 | -1.26252 | 18723 ft | 258 kts | 350° |
| 2026-05-01 08:23 | 51.66401 | -1.26713 | 19563 ft | 232 kts | 350° |
| 2026-05-01 08:24 | 51.67968 | -1.27147 | 20180 ft | 222 kts | 350° |
| 2026-05-01 08:24 | 51.69482 | -1.27564 | 20477 ft | 225 kts | 350° |
| 2026-05-01 08:24 | 51.71027 | -1.27993 | 20817 ft | 226 kts | 350° |
| 2026-05-01 08:24 | 51.72587 | -1.28422 | 21158 ft | 226 kts | 350° |
| 2026-05-01 08:25 | 51.74135 | -1.28852 | 21523 ft | 226 kts | 350° |
| 2026-05-01 08:25 | 51.75689 | -1.29280 | 21875 ft | 226 kts | 350° |
| 2026-05-01 08:25 | 51.77260 | -1.29717 | 21996 ft | 236 kts | 350° |
| 2026-05-01 08:25 | 51.78919 | -1.30178 | 22008 ft | 247 kts | 350° |
| 2026-05-01 08:26 | 51.80647 | -1.30660 | 22011 ft | 256 kts | 350° |
| 2026-05-01 08:26 | 51.82427 | -1.31156 | 22009 ft | 264 kts | 350° |
| 2026-05-01 08:26 | 51.84266 | -1.31666 | 22011 ft | 270 kts | 350° |
| 2026-05-01 08:26 | 51.86113 | -1.32184 | 22007 ft | 276 kts | 350° |
| 2026-05-01 08:27 | 51.88021 | -1.32715 | 22009 ft | 282 kts | 350° |
| 2026-05-01 08:27 | 51.89995 | -1.33263 | 22010 ft | 288 kts | 350° |
| 2026-05-01 08:27 | 51.91982 | -1.33819 | 22009 ft | 293 kts | 350° |
| 2026-05-01 08:27 | 51.94011 | -1.34386 | 22008 ft | 297 kts | 350° |
| 2026-05-01 08:28 | 51.96040 | -1.34952 | 22010 ft | 300 kts | 350° |
| 2026-05-01 08:28 | 51.98128 | -1.35537 | 22010 ft | 303 kts | 350° |
| 2026-05-01 08:28 | 52.00222 | -1.36123 | 22009 ft | 305 kts | 350° |
| 2026-05-01 08:28 | 52.02323 | -1.36711 | 22010 ft | 307 kts | 350° |
| 2026-05-01 08:29 | 52.04393 | -1.37294 | 22009 ft | 308 kts | 350° |
| 2026-05-01 08:29 | 52.06520 | -1.37889 | 22010 ft | 309 kts | 350° |
| 2026-05-01 08:29 | 52.08640 | -1.38485 | 22009 ft | 310 kts | 350° |
| 2026-05-01 08:29 | 52.10771 | -1.39086 | 22009 ft | 311 kts | 350° |
| 2026-05-01 08:30 | 52.12907 | -1.39685 | 22010 ft | 312 kts | 350° |
| 2026-05-01 08:30 | 52.15052 | -1.40287 | 22010 ft | 312 kts | 350° |
| 2026-05-01 08:30 | 52.17195 | -1.40892 | 22009 ft | 313 kts | 350° |
| 2026-05-01 08:30 | 52.19342 | -1.41498 | 22009 ft | 313 kts | 350° |
| 2026-05-01 08:31 | 52.21494 | -1.42104 | 22009 ft | 313 kts | 350° |
| 2026-05-01 08:31 | 52.23634 | -1.42711 | 22010 ft | 313 kts | 350° |
| 2026-05-01 08:31 | 52.25764 | -1.43314 | 22010 ft | 314 kts | 350° |
| 2026-05-01 08:31 | 52.27913 | -1.43923 | 22010 ft | 314 kts | 350° |
| 2026-05-01 08:32 | 52.30067 | -1.44536 | 22009 ft | 314 kts | 350° |
| 2026-05-01 08:32 | 52.32212 | -1.45144 | 22009 ft | 314 kts | 350° |
| 2026-05-01 08:32 | 52.34371 | -1.45758 | 22009 ft | 314 kts | 350° |
| 2026-05-01 08:32 | 52.36532 | -1.46373 | 22009 ft | 314 kts | 350° |
| 2026-05-01 08:33 | 52.38683 | -1.47000 | 22009 ft | 314 kts | 349° |
| 2026-05-01 08:33 | 52.40838 | -1.47647 | 22009 ft | 314 kts | 349° |
| 2026-05-01 08:33 | 52.42995 | -1.48284 | 22009 ft | 314 kts | 350° |
| 2026-05-01 08:33 | 52.45141 | -1.48914 | 22009 ft | 314 kts | 349° |
| 2026-05-01 08:34 | 52.47296 | -1.49554 | 22009 ft | 314 kts | 349° |
| 2026-05-01 08:34 | 52.48730 | -1.49979 | 22009 ft | 314 kts | 349° |
| 2026-05-01 08:34 | 52.50877 | -1.50617 | 22009 ft | 314 kts | 349° |
| 2026-05-01 08:34 | 52.53029 | -1.51257 | 22009 ft | 314 kts | 349° |
| 2026-05-01 08:35 | 52.55188 | -1.51896 | 22009 ft | 314 kts | 349° |
| 2026-05-01 08:35 | 52.57344 | -1.52540 | 22009 ft | 315 kts | 349° |
| 2026-05-01 08:35 | 52.59500 | -1.53182 | 22009 ft | 315 kts | 349° |
| 2026-05-01 08:35 | 52.61644 | -1.53818 | 22009 ft | 315 kts | 349° |
| 2026-05-01 08:36 | 52.63799 | -1.54461 | 22009 ft | 315 kts | 349° |
| 2026-05-01 08:36 | 52.65957 | -1.55106 | 22009 ft | 315 kts | 349° |
| 2026-05-01 08:36 | 52.68103 | -1.55745 | 22009 ft | 315 kts | 349° |
| 2026-05-01 08:36 | 52.70260 | -1.56391 | 22009 ft | 315 kts | 349° |
| 2026-05-01 08:37 | 52.72423 | -1.57040 | 22010 ft | 315 kts | 349° |
| 2026-05-01 08:37 | 52.74567 | -1.57683 | 22010 ft | 315 kts | 349° |
| 2026-05-01 08:37 | 52.76723 | -1.58331 | 22010 ft | 315 kts | 349° |
| 2026-05-01 08:37 | 52.78880 | -1.58979 | 22010 ft | 315 kts | 349° |
| 2026-05-01 08:38 | 52.81037 | -1.59629 | 22010 ft | 315 kts | 349° |
| 2026-05-01 08:38 | 52.83191 | -1.60277 | 22010 ft | 315 kts | 349° |
| 2026-05-01 08:38 | 52.85348 | -1.60924 | 22010 ft | 315 kts | 349° |
| 2026-05-01 08:38 | 52.87501 | -1.61573 | 22010 ft | 315 kts | 349° |
| 2026-05-01 08:39 | 52.89660 | -1.62226 | 22010 ft | 315 kts | 349° |
| 2026-05-01 08:39 | 52.91810 | -1.62874 | 22010 ft | 315 kts | 349° |
| 2026-05-01 08:39 | 52.93968 | -1.63526 | 22010 ft | 315 kts | 349° |
| 2026-05-01 08:39 | 52.96121 | -1.64181 | 22010 ft | 315 kts | 349° |
| 2026-05-01 08:40 | 53.00401 | -1.65478 | 22010 ft | 315 kts | 349° |
| 2026-05-01 08:40 | 53.02546 | -1.66132 | 22010 ft | 315 kts | 349° |
| 2026-05-01 08:40 | 53.04701 | -1.66788 | 22009 ft | 314 kts | 349° |
| 2026-05-01 08:41 | 53.06786 | -1.67838 | 22002 ft | 313 kts | 339° |
| 2026-05-01 08:41 | 53.08821 | -1.69140 | 22003 ft | 313 kts | 339° |
| 2026-05-01 08:41 | 53.10862 | -1.70383 | 22004 ft | 313 kts | 340° |
| 2026-05-01 08:41 | 53.12910 | -1.71635 | 22004 ft | 313 kts | 339° |
| 2026-05-01 08:42 | 53.14947 | -1.72906 | 22004 ft | 313 kts | 339° |
| 2026-05-01 08:42 | 53.16996 | -1.74181 | 22004 ft | 313 kts | 339° |
| 2026-05-01 08:42 | 53.19048 | -1.75453 | 22004 ft | 314 kts | 339° |
| 2026-05-01 08:42 | 53.21088 | -1.76725 | 22004 ft | 314 kts | 339° |
| 2026-05-01 08:43 | 53.23137 | -1.78001 | 22004 ft | 314 kts | 339° |
| 2026-05-01 08:43 | 53.25180 | -1.79274 | 22004 ft | 314 kts | 339° |
| 2026-05-01 08:43 | 53.27203 | -1.80538 | 22004 ft | 314 kts | 339° |
| 2026-05-01 08:43 | 53.29249 | -1.81816 | 22004 ft | 314 kts | 339° |
| 2026-05-01 08:44 | 53.31302 | -1.83097 | 21986 ft | 315 kts | 339° |
| 2026-05-01 08:44 | 53.33351 | -1.84378 | 21983 ft | 314 kts | 339° |
| 2026-05-01 08:44 | 53.35403 | -1.85665 | 21983 ft | 314 kts | 339° |
| 2026-05-01 08:44 | 53.37458 | -1.86951 | 21988 ft | 314 kts | 339° |
| 2026-05-01 08:45 | 53.39502 | -1.88235 | 21983 ft | 315 kts | 339° |
| 2026-05-01 08:45 | 53.41549 | -1.89522 | 21987 ft | 315 kts | 339° |
| 2026-05-01 08:45 | 53.43598 | -1.90812 | 21991 ft | 314 kts | 339° |
| 2026-05-01 08:45 | 53.45652 | -1.92107 | 21984 ft | 314 kts | 339° |
| 2026-05-01 08:46 | 53.47695 | -1.93394 | 21992 ft | 314 kts | 339° |
| 2026-05-01 08:46 | 53.49771 | -1.94500 | 21872 ft | 314 kts | 348° |
| 2026-05-01 08:46 | 53.51906 | -1.94718 | 21244 ft | 308 kts | 3° |
| 2026-05-01 08:46 | 53.54028 | -1.94075 | 20605 ft | 308 kts | 17° |
| 2026-05-01 08:47 | 53.55976 | -1.92644 | 19983 ft | 311 kts | 28° |
| 2026-05-01 08:47 | 53.57889 | -1.90901 | 19329 ft | 314 kts | 28° |
| 2026-05-01 08:47 | 53.59831 | -1.89174 | 18605 ft | 315 kts | 27° |
| 2026-05-01 08:47 | 53.61764 | -1.87470 | 17887 ft | 313 kts | 27° |
| 2026-05-01 08:48 | 53.63679 | -1.85762 | 17164 ft | 312 kts | 28° |
| 2026-05-01 08:48 | 53.65611 | -1.84033 | 16436 ft | 314 kts | 28° |
| 2026-05-01 08:48 | 53.67530 | -1.82322 | 15718 ft | 310 kts | 28° |
| 2026-05-01 08:48 | 53.69415 | -1.80637 | 14994 ft | 305 kts | 28° |
| 2026-05-01 08:49 | 53.71276 | -1.78974 | 14271 ft | 301 kts | 28° |
| 2026-05-01 08:49 | 53.73115 | -1.77326 | 13547 ft | 298 kts | 28° |
| 2026-05-01 08:49 | 53.74937 | -1.75693 | 12827 ft | 294 kts | 28° |
| 2026-05-01 08:49 | 53.76683 | -1.74128 | 12103 ft | 272 kts | 28° |
| 2026-05-01 08:50 | 53.78284 | -1.72689 | 11374 ft | 249 kts | 28° |
| 2026-05-01 08:50 | 53.79776 | -1.71345 | 10373 ft | 243 kts | 28° |
| 2026-05-01 08:50 | 53.81281 | -1.69994 | 9142 ft | 246 kts | 28° |
| 2026-05-01 08:50 | 53.82773 | -1.68650 | 7932 ft | 246 kts | 28° |
| 2026-05-01 08:51 | 53.84285 | -1.67309 | 6702 ft | 244 kts | 25° |
| 2026-05-01 08:51 | 53.85898 | -1.66439 | 5466 ft | 245 kts | 13° |
| 2026-05-01 08:51 | 53.87609 | -1.66456 | 4224 ft | 253 kts | 345° |
| 2026-05-01 08:51 | 53.89194 | -1.67634 | 3049 ft | 244 kts | 333° |
| 2026-05-01 08:52 | 53.90605 | -1.68867 | 2819 ft | 210 kts | 332° |
| 2026-05-01 08:52 | 53.91829 | -1.69951 | 2805 ft | 192 kts | 333° |
| 2026-05-01 08:52 | 53.93012 | -1.70986 | 2815 ft | 189 kts | 333° |
| 2026-05-01 08:52 | 53.94163 | -1.71997 | 2810 ft | 188 kts | 333° |
| 2026-05-01 08:53 | 53.95355 | -1.73040 | 2814 ft | 198 kts | 333° |
| 2026-05-01 08:53 | 53.96618 | -1.74147 | 2821 ft | 208 kts | 333° |
| 2026-05-01 08:53 | 53.97910 | -1.75283 | 2826 ft | 208 kts | 333° |
| 2026-05-01 08:53 | 53.99160 | -1.76379 | 2823 ft | 196 kts | 333° |
| 2026-05-01 08:54 | 54.00354 | -1.77433 | 2815 ft | 192 kts | 333° |
| 2026-05-01 08:54 | 54.01481 | -1.78643 | 2801 ft | 193 kts | 313° |
| 2026-05-01 08:54 | 54.02045 | -1.80684 | 2805 ft | 194 kts | 279° |
| 2026-05-01 08:54 | 54.01859 | -1.82925 | 2811 ft | 195 kts | 245° |
| 2026-05-01 08:55 | 54.00986 | -1.84601 | 2806 ft | 192 kts | 212° |
| 2026-05-01 08:55 | 53.99735 | -1.85176 | 2807 ft | 189 kts | 179° |
| 2026-05-01 08:55 | 53.98487 | -1.84493 | 2807 ft | 191 kts | 146° |
| 2026-05-01 08:55 | 53.97517 | -1.83009 | 2816 ft | 187 kts | 136° |
| 2026-05-01 08:56 | 53.96645 | -1.81641 | 2820 ft | 151 kts | 139° |
| 2026-05-01 08:56 | 53.95927 | -1.80543 | 2803 ft | 133 kts | 136° |
| 2026-05-01 08:56 | 53.95223 | -1.79436 | 2814 ft | 143 kts | 138° |
| 2026-05-01 08:56 | 53.94478 | -1.78295 | 2817 ft | 145 kts | 136° |
| 2026-05-01 08:57 | 53.93729 | -1.77115 | 2711 ft | 151 kts | 139° |
| 2026-05-01 08:57 | 53.92958 | -1.75938 | 2487 ft | 147 kts | 136° |
| 2026-05-01 08:57 | 53.92230 | -1.74789 | 2262 ft | 136 kts | 138° |
| 2026-05-01 08:57 | 53.91549 | -1.73752 | 2056 ft | 126 kts | 136° |
| 2026-05-01 08:58 | 53.90939 | -1.72788 | 1870 ft | 112 kts | 139° |
| 2026-05-01 08:58 | 53.90422 | -1.72000 | 1704 ft | 90 kts | 136° |
| 2026-05-01 08:58 | 53.89979 | -1.71273 | 1517 ft | 87 kts | 135° |
| 2026-05-01 08:58 | 53.89558 | -1.70583 | 1329 ft | 80 kts | 137° |
| 2026-05-01 08:59 | 53.89162 | -1.69956 | 1184 ft | 84 kts | 137° |
| 2026-05-01 08:59 | 53.88663 | -1.69191 | 1247 ft | 105 kts | 139° |
| 2026-05-01 08:59 | 53.88117 | -1.68372 | 1177 ft | 94 kts | 137° |
| 2026-05-01 08:59 | 53.87627 | -1.67614 | 829 ft | 94 kts | 139° |
| 2026-05-01 09:00 | 53.87170 | -1.66939 | 681 ft | 80 kts | 138° |
| 2026-05-01 09:00 | 53.86808 | -1.66393 | 666 ft | 48 kts | 138° |
| 2026-05-01 09:00 | 53.86762 | -1.66323 | 667 ft | 1 kts | 194° |
| 2026-05-01 09:00 | 53.86750 | -1.66406 | 666 ft | 15 kts | 272° |
| 2026-05-01 09:01 | 53.86751 | -1.66522 | 664 ft | 2 kts | 267° |
| 2026-05-01 09:01 | 53.86751 | -1.66540 | 664 ft | 0 kts | 271° |
| 2026-05-01 09:01 | 53.86751 | -1.66554 | 663 ft | 4 kts | 271° |
| 2026-05-01 09:01 | 53.86746 | -1.66677 | 661 ft | 16 kts | 231° |
| 2026-05-01 09:02 | 53.86640 | -1.66736 | 660 ft | 10 kts | 175° |
| 2026-05-01 09:02 | 53.86581 | -1.66721 | 660 ft | 6 kts | 166° |
| 2026-05-01 09:02 | 53.86576 | -1.66703 | 660 ft | 1 kts | 85° |
| 2026-05-01 09:02 | 53.86596 | -1.66683 | 661 ft | 2 kts | 330° |
| 2026-05-01 09:03 | 53.86597 | -1.66683 | 661 ft | 0 kts | 360° |